RYR45YF EHEH-EDNY
Flight info
| Callsign | RYR45YF |
|---|---|
| Flight time | 0h 52m |
| Altitude | 35000 |
| Route | LNO5J LNO N852 DIK M150 KRH TEDGO L607 UTABA NY400 |
| Aircraft | A320/M-SDE3FGHIRWY/LB1 |
Departure
| Time | 2026-04-26 13:50 |
|---|---|
| Airport | Eindhoven Airport (EHEH) |
Arrival
| Time | 2026-04-26 14:42 |
|---|---|
| Airport | Bodensee Airport Friedrichshafen (EDNY) |
| Time | Latitude | Longitude | Altitude | Speed | Heading |
|---|---|---|---|---|---|
| 2026-04-26 13:28 | 51.45756 | 5.38929 | 70 ft | 0 kts | 125° |
| 2026-04-26 13:38 | 51.45770 | 5.38896 | 62 ft | 5 kts | 120° |
| 2026-04-26 13:38 | 51.45781 | 5.38858 | 66 ft | 3 kts | 103° |
| 2026-04-26 13:39 | 51.45782 | 5.38836 | 66 ft | 2 kts | 76° |
| 2026-04-26 13:39 | 51.45778 | 5.38820 | 67 ft | 2 kts | 51° |
| 2026-04-26 13:39 | 51.45770 | 5.38807 | 71 ft | 2 kts | 38° |
| 2026-04-26 13:39 | 51.45762 | 5.38797 | 64 ft | 2 kts | 34° |
| 2026-04-26 13:40 | 51.45757 | 5.38793 | 64 ft | 0 kts | 33° |
| 2026-04-26 13:42 | 51.45775 | 5.38792 | 68 ft | 7 kts | 349° |
| 2026-04-26 13:42 | 51.45804 | 5.38749 | 68 ft | 4 kts | 306° |
| 2026-04-26 13:43 | 51.45821 | 5.38712 | 75 ft | 3 kts | 304° |
| 2026-04-26 13:43 | 51.45831 | 5.38691 | 72 ft | 1 kts | 305° |
| 2026-04-26 13:43 | 51.45843 | 5.38663 | 74 ft | 7 kts | 305° |
| 2026-04-26 13:43 | 51.45874 | 5.38592 | 78 ft | 9 kts | 305° |
| 2026-04-26 13:44 | 51.45920 | 5.38485 | 71 ft | 15 kts | 305° |
| 2026-04-26 13:44 | 51.45980 | 5.38353 | 69 ft | 12 kts | 306° |
| 2026-04-26 13:44 | 51.45970 | 5.38243 | 80 ft | 15 kts | 219° |
| 2026-04-26 13:44 | 51.45883 | 5.38147 | 75 ft | 17 kts | 214° |
| 2026-04-26 13:45 | 51.45779 | 5.38029 | 78 ft | 20 kts | 214° |
| 2026-04-26 13:45 | 51.45650 | 5.37884 | 85 ft | 25 kts | 216° |
| 2026-04-26 13:45 | 51.45495 | 5.37711 | 82 ft | 30 kts | 214° |
| 2026-04-26 13:45 | 51.45324 | 5.37520 | 81 ft | 31 kts | 215° |
| 2026-04-26 13:46 | 51.45143 | 5.37317 | 72 ft | 31 kts | 214° |
| 2026-04-26 13:46 | 51.44972 | 5.37126 | 85 ft | 29 kts | 215° |
| 2026-04-26 13:46 | 51.44828 | 5.36961 | 87 ft | 23 kts | 216° |
| 2026-04-26 13:46 | 51.44702 | 5.36822 | 83 ft | 21 kts | 216° |
| 2026-04-26 13:47 | 51.44584 | 5.36686 | 71 ft | 20 kts | 214° |
| 2026-04-26 13:47 | 51.44486 | 5.36580 | 70 ft | 15 kts | 215° |
| 2026-04-26 13:47 | 51.44393 | 5.36475 | 84 ft | 19 kts | 214° |
| 2026-04-26 13:47 | 51.44274 | 5.36342 | 84 ft | 23 kts | 214° |
| 2026-04-26 13:48 | 51.44151 | 5.36209 | 87 ft | 18 kts | 214° |
| 2026-04-26 13:48 | 51.44059 | 5.36100 | 84 ft | 15 kts | 215° |
| 2026-04-26 13:48 | 51.43961 | 5.36124 | 81 ft | 18 kts | 126° |
| 2026-04-26 13:48 | 51.43962 | 5.36275 | 86 ft | 12 kts | 44° |
| 2026-04-26 13:49 | 51.44008 | 5.36329 | 83 ft | 5 kts | 35° |
| 2026-04-26 13:49 | 51.44141 | 5.36478 | 82 ft | 55 kts | 35° |
| 2026-04-26 13:49 | 51.44649 | 5.37043 | 84 ft | 121 kts | 35° |
| 2026-04-26 13:49 | 51.45478 | 5.37971 | 416 ft | 154 kts | 35° |
| 2026-04-26 13:50 | 51.46349 | 5.38932 | 1382 ft | 153 kts | 34° |
| 2026-04-26 13:50 | 51.47271 | 5.39938 | 2021 ft | 174 kts | 34° |
| 2026-04-26 13:50 | 51.48370 | 5.41181 | 2339 ft | 213 kts | 35° |
| 2026-04-26 13:50 | 51.49504 | 5.42914 | 2834 ft | 235 kts | 58° |
| 2026-04-26 13:51 | 51.49977 | 5.45491 | 3696 ft | 250 kts | 84° |
| 2026-04-26 13:51 | 51.50028 | 5.48355 | 4617 ft | 264 kts | 90° |
| 2026-04-26 13:51 | 51.49924 | 5.51349 | 5308 ft | 274 kts | 93° |
| 2026-04-26 13:51 | 51.49727 | 5.54410 | 5703 ft | 277 kts | 96° |
| 2026-04-26 13:52 | 51.49437 | 5.57494 | 5877 ft | 279 kts | 98° |
| 2026-04-26 13:52 | 51.49078 | 5.60504 | 6006 ft | 279 kts | 104° |
| 2026-04-26 13:52 | 51.48170 | 5.63261 | 6457 ft | 283 kts | 128° |
| 2026-04-26 13:52 | 51.46829 | 5.65600 | 7205 ft | 286 kts | 135° |
| 2026-04-26 13:53 | 51.45349 | 5.67754 | 8118 ft | 289 kts | 139° |
| 2026-04-26 13:53 | 51.43776 | 5.69805 | 9000 ft | 293 kts | 142° |
| 2026-04-26 13:53 | 51.42137 | 5.71786 | 9663 ft | 297 kts | 144° |
| 2026-04-26 13:53 | 51.40448 | 5.73724 | 10032 ft | 302 kts | 145° |
| 2026-04-26 13:54 | 51.38703 | 5.75655 | 10199 ft | 304 kts | 146° |
| 2026-04-26 13:54 | 51.36955 | 5.77539 | 10354 ft | 304 kts | 147° |
| 2026-04-26 13:54 | 51.35139 | 5.79464 | 10409 ft | 322 kts | 147° |
| 2026-04-26 13:55 | 51.31189 | 5.83610 | 11015 ft | 360 kts | 147° |
| 2026-04-26 13:55 | 51.29753 | 5.85116 | 11332 ft | 370 kts | 147° |
| 2026-04-26 13:55 | 51.24219 | 5.89564 | 12727 ft | 392 kts | 162° |
| 2026-04-26 13:56 | 51.21579 | 5.90757 | 13482 ft | 395 kts | 168° |
| 2026-04-26 13:56 | 51.18863 | 5.91581 | 14196 ft | 400 kts | 172° |
| 2026-04-26 13:56 | 51.16096 | 5.92226 | 14884 ft | 402 kts | 174° |
| 2026-04-26 13:56 | 51.13301 | 5.92754 | 15550 ft | 405 kts | 178° |
| 2026-04-26 13:57 | 51.10502 | 5.92499 | 16216 ft | 405 kts | 190° |
| 2026-04-26 13:57 | 51.07715 | 5.91725 | 16876 ft | 407 kts | 193° |
| 2026-04-26 13:57 | 51.04964 | 5.90779 | 17498 ft | 410 kts | 195° |
| 2026-04-26 13:57 | 51.02173 | 5.89719 | 18150 ft | 413 kts | 196° |
| 2026-04-26 13:58 | 50.99381 | 5.88598 | 18746 ft | 416 kts | 196° |
| 2026-04-26 13:58 | 50.96558 | 5.87424 | 19237 ft | 420 kts | 197° |
| 2026-04-26 13:58 | 50.93724 | 5.86224 | 19737 ft | 424 kts | 197° |
| 2026-04-26 13:58 | 50.90853 | 5.84993 | 20216 ft | 428 kts | 197° |
| 2026-04-26 13:59 | 50.87968 | 5.83747 | 20684 ft | 432 kts | 197° |
| 2026-04-26 13:59 | 50.85049 | 5.82481 | 21147 ft | 436 kts | 197° |
| 2026-04-26 13:59 | 50.82111 | 5.81206 | 21605 ft | 440 kts | 197° |
| 2026-04-26 14:00 | 50.73162 | 5.77310 | 22926 ft | 452 kts | 198° |
| 2026-04-26 14:00 | 50.70111 | 5.75984 | 23343 ft | 456 kts | 198° |
| 2026-04-26 14:00 | 50.68073 | 5.75101 | 23616 ft | 459 kts | 198° |
| 2026-04-26 14:01 | 50.63937 | 5.73313 | 24129 ft | 463 kts | 198° |
| 2026-04-26 14:01 | 50.60789 | 5.72167 | 24511 ft | 468 kts | 188° |
| 2026-04-26 14:01 | 50.57514 | 5.72272 | 24876 ft | 475 kts | 172° |
| 2026-04-26 14:01 | 50.54296 | 5.73546 | 25237 ft | 479 kts | 164° |
| 2026-04-26 14:02 | 50.51120 | 5.75201 | 25584 ft | 482 kts | 162° |
| 2026-04-26 14:02 | 50.47986 | 5.76971 | 25947 ft | 485 kts | 161° |
| 2026-04-26 14:02 | 50.44814 | 5.78823 | 26285 ft | 488 kts | 160° |
| 2026-04-26 14:02 | 50.41625 | 5.80713 | 26599 ft | 490 kts | 160° |
| 2026-04-26 14:03 | 50.38428 | 5.82618 | 27065 ft | 490 kts | 160° |
| 2026-04-26 14:03 | 50.35246 | 5.84514 | 27536 ft | 489 kts | 160° |
| 2026-04-26 14:03 | 50.32064 | 5.86403 | 28005 ft | 488 kts | 160° |
| 2026-04-26 14:03 | 50.28881 | 5.88287 | 28465 ft | 488 kts | 160° |
| 2026-04-26 14:04 | 50.25711 | 5.90153 | 28937 ft | 487 kts | 160° |
| 2026-04-26 14:04 | 50.22579 | 5.91990 | 29404 ft | 486 kts | 161° |
| 2026-04-26 14:04 | 50.19409 | 5.93840 | 29883 ft | 486 kts | 161° |
| 2026-04-26 14:04 | 50.16241 | 5.95682 | 30327 ft | 485 kts | 161° |
| 2026-04-26 14:05 | 50.13069 | 5.97521 | 30722 ft | 485 kts | 161° |
| 2026-04-26 14:05 | 50.09908 | 5.99347 | 31143 ft | 483 kts | 161° |
| 2026-04-26 14:05 | 50.06754 | 6.01163 | 31550 ft | 482 kts | 161° |
| 2026-04-26 14:05 | 50.03613 | 6.02965 | 31970 ft | 481 kts | 161° |
| 2026-04-26 14:06 | 50.00470 | 6.04766 | 32383 ft | 480 kts | 161° |
| 2026-04-26 14:06 | 49.97377 | 6.06539 | 32796 ft | 479 kts | 161° |
| 2026-04-26 14:06 | 49.94244 | 6.08332 | 33219 ft | 477 kts | 161° |
| 2026-04-26 14:06 | 49.91123 | 6.10116 | 33628 ft | 476 kts | 161° |
| 2026-04-26 14:07 | 49.88078 | 6.12129 | 34051 ft | 476 kts | 150° |
| 2026-04-26 14:07 | 49.85487 | 6.15197 | 34434 ft | 475 kts | 133° |
| 2026-04-26 14:07 | 49.83497 | 6.19257 | 34774 ft | 474 kts | 120° |
| 2026-04-26 14:07 | 49.81914 | 6.23715 | 35026 ft | 467 kts | 116° |
| 2026-04-26 14:08 | 49.80465 | 6.28190 | 35146 ft | 464 kts | 115° |
| 2026-04-26 14:08 | 49.77632 | 6.37256 | 35220 ft | 472 kts | 115° |
| 2026-04-26 14:09 | 49.74739 | 6.46354 | 35230 ft | 473 kts | 116° |
| 2026-04-26 14:09 | 49.71725 | 6.55371 | 35230 ft | 470 kts | 117° |
| 2026-04-26 14:10 | 49.68670 | 6.64297 | 35227 ft | 470 kts | 117° |
| 2026-04-26 14:10 | 49.65594 | 6.73212 | 35221 ft | 471 kts | 117° |
| 2026-04-26 14:11 | 49.60969 | 6.86555 | 35223 ft | 469 kts | 118° |
| 2026-04-26 14:11 | 49.57887 | 6.95412 | 35221 ft | 468 kts | 118° |
| 2026-04-26 14:12 | 49.54820 | 7.04203 | 35226 ft | 469 kts | 118° |
| 2026-04-26 14:12 | 49.51703 | 7.13111 | 35232 ft | 469 kts | 118° |
| 2026-04-26 14:13 | 49.47076 | 7.26274 | 35228 ft | 468 kts | 118° |
| 2026-04-26 14:14 | 49.43969 | 7.35081 | 35223 ft | 469 kts | 118° |
| 2026-04-26 14:14 | 49.40853 | 7.43887 | 35225 ft | 468 kts | 118° |
| 2026-04-26 14:15 | 49.37739 | 7.52649 | 35221 ft | 468 kts | 119° |
| 2026-04-26 14:15 | 49.34633 | 7.61360 | 35222 ft | 468 kts | 119° |
| 2026-04-26 14:16 | 49.31502 | 7.70114 | 35221 ft | 468 kts | 119° |
| 2026-04-26 14:16 | 49.28361 | 7.78863 | 35228 ft | 468 kts | 119° |
| 2026-04-26 14:17 | 49.25221 | 7.87590 | 35227 ft | 467 kts | 119° |
| 2026-04-26 14:17 | 49.22095 | 7.96246 | 35230 ft | 467 kts | 119° |
| 2026-04-26 14:18 | 49.18938 | 8.04959 | 35232 ft | 468 kts | 120° |
| 2026-04-26 14:18 | 49.15775 | 8.13655 | 35230 ft | 468 kts | 120° |
| 2026-04-26 14:19 | 49.12609 | 8.22325 | 35228 ft | 467 kts | 120° |
| 2026-04-26 14:19 | 49.09439 | 8.30974 | 35227 ft | 467 kts | 120° |
| 2026-04-26 14:20 | 49.06794 | 8.38167 | 35229 ft | 468 kts | 120° |
| 2026-04-26 14:20 | 49.03088 | 8.48208 | 35226 ft | 467 kts | 120° |
| 2026-04-26 14:21 | 48.99738 | 8.56673 | 35230 ft | 466 kts | 127° |
| 2026-04-26 14:21 | 48.95786 | 8.64527 | 35228 ft | 466 kts | 130° |
| 2026-04-26 14:22 | 48.91696 | 8.72165 | 35226 ft | 465 kts | 131° |
| 2026-04-26 14:22 | 48.88266 | 8.78448 | 35222 ft | 464 kts | 131° |
| 2026-04-26 14:23 | 48.83444 | 8.87200 | 35216 ft | 466 kts | 131° |
| 2026-04-26 14:23 | 48.79948 | 8.93510 | 35218 ft | 466 kts | 131° |
| 2026-04-26 14:24 | 48.75781 | 9.01008 | 35214 ft | 465 kts | 131° |
| 2026-04-26 14:24 | 48.71604 | 9.08502 | 35131 ft | 466 kts | 132° |
| 2026-04-26 14:24 | 48.69509 | 9.12247 | 34867 ft | 465 kts | 132° |
| 2026-04-26 14:25 | 48.67449 | 9.15932 | 34253 ft | 465 kts | 132° |
| 2026-04-26 14:25 | 48.65361 | 9.19664 | 33384 ft | 464 kts | 132° |
| 2026-04-26 14:25 | 48.63178 | 9.23223 | 32684 ft | 456 kts | 143° |
| 2026-04-26 14:25 | 48.60561 | 9.25803 | 32021 ft | 445 kts | 156° |
| 2026-04-26 14:26 | 48.57774 | 9.27791 | 31315 ft | 441 kts | 160° |
| 2026-04-26 14:26 | 48.54943 | 9.29593 | 30582 ft | 439 kts | 161° |
| 2026-04-26 14:26 | 48.52131 | 9.31285 | 29778 ft | 429 kts | 162° |
| 2026-04-26 14:26 | 48.49371 | 9.32888 | 28945 ft | 420 kts | 163° |
| 2026-04-26 14:27 | 48.46662 | 9.34427 | 28129 ft | 412 kts | 163° |
| 2026-04-26 14:27 | 48.43996 | 9.35922 | 27330 ft | 405 kts | 163° |
| 2026-04-26 14:27 | 48.41403 | 9.37363 | 26573 ft | 400 kts | 163° |
| 2026-04-26 14:27 | 48.38794 | 9.38808 | 25821 ft | 398 kts | 163° |
| 2026-04-26 14:28 | 48.36205 | 9.40238 | 25088 ft | 395 kts | 163° |
| 2026-04-26 14:28 | 48.33646 | 9.41739 | 24369 ft | 394 kts | 160° |
| 2026-04-26 14:28 | 48.31141 | 9.43388 | 23664 ft | 391 kts | 159° |
| 2026-04-26 14:28 | 48.28649 | 9.44941 | 22848 ft | 383 kts | 168° |
| 2026-04-26 14:29 | 48.26051 | 9.45349 | 22079 ft | 371 kts | 189° |
| 2026-04-26 14:29 | 48.23608 | 9.44370 | 21322 ft | 361 kts | 210° |
| 2026-04-26 14:29 | 48.21625 | 9.42172 | 20578 ft | 352 kts | 231° |
| 2026-04-26 14:29 | 48.20368 | 9.39095 | 19857 ft | 346 kts | 252° |
| 2026-04-26 14:30 | 48.20001 | 9.35581 | 19157 ft | 342 kts | 273° |
| 2026-04-26 14:30 | 48.20255 | 9.32054 | 18450 ft | 339 kts | 279° |
| 2026-04-26 14:30 | 48.20677 | 9.28641 | 17668 ft | 335 kts | 286° |
| 2026-04-26 14:30 | 48.21739 | 9.25574 | 16905 ft | 333 kts | 309° |
| 2026-04-26 14:31 | 48.23532 | 9.23409 | 16164 ft | 335 kts | 332° |
| 2026-04-26 14:31 | 48.25706 | 9.22157 | 15427 ft | 335 kts | 341° |
| 2026-04-26 14:31 | 48.28008 | 9.21641 | 14713 ft | 336 kts | 2° |
| 2026-04-26 14:31 | 48.30269 | 9.22494 | 14023 ft | 338 kts | 25° |
| 2026-04-26 14:32 | 48.32140 | 9.24606 | 13254 ft | 337 kts | 48° |
| 2026-04-26 14:32 | 48.33314 | 9.27619 | 12491 ft | 335 kts | 72° |
| 2026-04-26 14:32 | 48.33617 | 9.31057 | 11741 ft | 332 kts | 95° |
| 2026-04-26 14:32 | 48.33008 | 9.34359 | 11026 ft | 328 kts | 119° |
| 2026-04-26 14:33 | 48.31724 | 9.37146 | 10315 ft | 323 kts | 130° |
| 2026-04-26 14:33 | 48.30221 | 9.39628 | 9543 ft | 320 kts | 136° |
| 2026-04-26 14:33 | 48.28593 | 9.41889 | 8771 ft | 314 kts | 140° |
| 2026-04-26 14:33 | 48.26944 | 9.43890 | 8011 ft | 304 kts | 143° |
| 2026-04-26 14:34 | 48.25253 | 9.45727 | 7249 ft | 296 kts | 146° |
| 2026-04-26 14:34 | 48.23581 | 9.47385 | 6849 ft | 277 kts | 147° |
| 2026-04-26 14:34 | 48.21962 | 9.48884 | 6463 ft | 270 kts | 149° |
| 2026-04-26 14:34 | 48.11901 | 9.56887 | 6083 ft | 223 kts | 153° |
| 2026-04-26 14:35 | 48.05814 | 9.61018 | 6065 ft | 221 kts | 155° |
| 2026-04-26 14:35 | 48.04409 | 9.61940 | 6036 ft | 220 kts | 155° |
| 2026-04-26 14:35 | 47.98104 | 9.66124 | 4972 ft | 225 kts | 154° |
| 2026-04-26 14:35 | 47.94229 | 9.68741 | 4130 ft | 216 kts | 154° |
| 2026-04-26 14:36 | 47.90061 | 9.71575 | 4030 ft | 218 kts | 153° |
| 2026-04-26 14:36 | 47.86151 | 9.74239 | 4041 ft | 195 kts | 152° |
| 2026-04-26 14:36 | 47.80994 | 9.77749 | 4025 ft | 195 kts | 153° |
| 2026-04-26 14:36 | 47.79751 | 9.78506 | 4079 ft | 194 kts | 155° |
| 2026-04-26 14:37 | 47.78461 | 9.78803 | 4058 ft | 186 kts | 190° |
| 2026-04-26 14:37 | 47.77317 | 9.78034 | 4057 ft | 179 kts | 212° |
| 2026-04-26 14:37 | 47.76521 | 9.76655 | 4021 ft | 178 kts | 242° |
| 2026-04-26 14:37 | 47.75959 | 9.75016 | 4020 ft | 178 kts | 246° |
| 2026-04-26 14:38 | 47.75432 | 9.73355 | 4015 ft | 180 kts | 246° |
| 2026-04-26 14:38 | 47.74920 | 9.71684 | 4022 ft | 178 kts | 248° |
| 2026-04-26 14:38 | 47.74390 | 9.70026 | 4011 ft | 175 kts | 245° |
| 2026-04-26 14:38 | 47.73821 | 9.68394 | 3884 ft | 183 kts | 243° |
| 2026-04-26 14:39 | 47.73206 | 9.66785 | 3608 ft | 175 kts | 240° |
| 2026-04-26 14:39 | 47.72600 | 9.65239 | 3395 ft | 167 kts | 241° |
| 2026-04-26 14:39 | 47.72018 | 9.63741 | 3173 ft | 167 kts | 241° |
| 2026-04-26 14:39 | 47.71438 | 9.62269 | 2925 ft | 167 kts | 241° |
| 2026-04-26 14:40 | 47.70868 | 9.60806 | 2730 ft | 163 kts | 242° |
| 2026-04-26 14:40 | 47.70305 | 9.59349 | 2554 ft | 163 kts | 242° |
| 2026-04-26 14:40 | 47.69746 | 9.57893 | 2352 ft | 163 kts | 243° |
| 2026-04-26 14:40 | 47.69189 | 9.56454 | 2132 ft | 161 kts | 242° |
| 2026-04-26 14:41 | 47.68619 | 9.55028 | 1877 ft | 160 kts | 242° |
| 2026-04-26 14:41 | 47.68092 | 9.53606 | 1634 ft | 154 kts | 243° |
| 2026-04-26 14:41 | 47.67556 | 9.52228 | 1401 ft | 151 kts | 240° |
| 2026-04-26 14:41 | 47.67072 | 9.50984 | 1358 ft | 118 kts | 240° |
| 2026-04-26 14:42 | 47.66859 | 9.50441 | 1352 ft | 30 kts | 242° |
| 2026-04-26 14:42 | 47.66773 | 9.50214 | 1350 ft | 19 kts | 242° |
| 2026-04-26 14:42 | 47.66714 | 9.50066 | 1347 ft | 20 kts | 239° |
| 2026-04-26 14:42 | 47.66641 | 9.49883 | 1343 ft | 14 kts | 238° |
| 2026-04-26 14:43 | 47.66568 | 9.49843 | 1341 ft | 10 kts | 155° |
| 2026-04-26 14:43 | 47.66531 | 9.49909 | 1346 ft | 7 kts | 120° |
| 2026-04-26 14:43 | 47.66512 | 9.49958 | 1344 ft | 8 kts | 120° |
| 2026-04-26 14:43 | 47.66487 | 9.50023 | 1343 ft | 5 kts | 120° |
| 2026-04-26 14:44 | 47.66472 | 9.50111 | 1343 ft | 10 kts | 89° |
| 2026-04-26 14:44 | 47.66487 | 9.50181 | 1347 ft | 7 kts | 61° |
| 2026-04-26 14:44 | 47.66528 | 9.50285 | 1347 ft | 16 kts | 59° |
| 2026-04-26 14:44 | 47.66586 | 9.50437 | 1348 ft | 17 kts | 60° |
| 2026-04-26 14:45 | 47.66650 | 9.50601 | 1350 ft | 20 kts | 60° |
| 2026-04-26 14:45 | 47.66714 | 9.50704 | 1353 ft | 21 kts | 32° |
| 2026-04-26 14:45 | 47.66854 | 9.50908 | 1357 ft | 22 kts | 60° |
| 2026-04-26 14:45 | 47.66936 | 9.51116 | 1358 ft | 24 kts | 59° |
| 2026-04-26 14:46 | 47.67016 | 9.51323 | 1362 ft | 21 kts | 61° |
| 2026-04-26 14:46 | 47.67083 | 9.51492 | 1364 ft | 16 kts | 63° |
| 2026-04-26 14:46 | 47.67146 | 9.51658 | 1367 ft | 19 kts | 60° |
| 2026-04-26 14:46 | 47.67203 | 9.51807 | 1369 ft | 15 kts | 60° |
| 2026-04-26 14:47 | 47.67247 | 9.51919 | 1370 ft | 11 kts | 59° |
| 2026-04-26 14:47 | 47.67281 | 9.52005 | 1370 ft | 10 kts | 61° |
| 2026-04-26 14:47 | 47.67319 | 9.52107 | 1373 ft | 13 kts | 60° |
| 2026-04-26 14:47 | 47.67360 | 9.52212 | 1372 ft | 8 kts | 60° |
| 2026-04-26 14:48 | 47.67380 | 9.52263 | 1373 ft | 4 kts | 65° |
| 2026-04-26 14:48 | 47.67378 | 9.52286 | 1374 ft | 2 kts | 116° |
| 2026-04-26 14:48 | 47.67361 | 9.52308 | 1375 ft | 4 kts | 146° |
| 2026-04-26 14:48 | 47.67344 | 9.52322 | 1374 ft | 2 kts | 152° |
| 2026-04-26 14:49 | 47.67335 | 9.52322 | 1375 ft | 1 kts | 187° |
| 2026-04-26 14:49 | 47.67331 | 9.52316 | 1375 ft | 0 kts | 221° |
| 2026-04-26 14:49 | 47.67329 | 9.52311 | 1374 ft | 1 kts | 239° |
| 2026-04-26 14:49 | 47.67330 | 9.52301 | 1372 ft | 0 kts | 280° |